Time;durP1;ratioP1;P1;durP2;ratioP2;P2;SDS_P1;SDS_P2;PMS_P1;PMS_P2;Temp;Humidity;BMP_temperature;BMP_pressure;BME280_temperature;BME280_humidity;BME280_pressure;Samples;Min_cycle;Max_cycle;Signal;HPM_P1;HPM_P2
2023/08/05 00:01:20;;;;;;;25.10;18.67;;;;;;;;;;6278014;22;20023;-82
2023/08/05 00:03:45;;;;;;;23.00;19.27;;;;;;;;;;6251301;22;20003;-82
2023/08/05 00:06:11;;;;;;;27.92;19.13;;;;;;;;;;6281860;22;20038;-81
2023/08/05 00:08:36;;;;;;;26.48;18.40;;;;;;;;;;6251371;22;20000;-81
2023/08/05 00:11:02;;;;;;;25.10;19.25;;;;;;;;;;6251139;22;20039;-81
2023/08/05 00:13:27;;;;;;;24.00;17.90;;;;;;;;;;6278575;22;20007;-81
2023/08/05 00:15:52;;;;;;;25.63;18.73;;;;;;;;;;6226019;22;20099;-81
2023/08/05 00:18:18;;;;;;;26.25;18.33;;;;;;;;;;6251157;22;20042;-82
2023/08/05 00:20:43;;;;;;;25.08;18.75;;;;;;;;;;6278409;22;20008;-81
2023/08/05 00:23:09;;;;;;;25.80;18.80;;;;;;;;;;6251494;22;20338;-82
2023/08/05 00:25:34;;;;;;;29.13;18.70;;;;;;;;;;6279289;22;20003;-81
2023/08/05 00:28:00;;;;;;;24.05;17.63;;;;;;;;;;6279232;22;20004;-81
2023/08/05 00:30:25;;;;;;;26.27;17.90;;;;;;;;;;6278292;22;20007;-81
2023/08/05 00:32:51;;;;;;;28.20;18.00;;;;;;;;;;6225157;22;20007;-82
2023/08/05 00:35:16;;;;;;;22.00;17.23;;;;;;;;;;6278431;22;20008;-81
2023/08/05 00:37:42;;;;;;;24.33;17.75;;;;;;;;;;6278221;22;20004;-81
2023/08/05 00:40:08;;;;;;;30.70;17.02;;;;;;;;;;6278238;22;20415;-81
2023/08/05 00:42:34;;;;;;;21.50;16.73;;;;;;;;;;6277804;22;20037;-81
2023/08/05 00:44:59;;;;;;;22.67;16.27;;;;;;;;;;6277861;22;20102;-83
2023/08/05 00:47:24;;;;;;;22.27;15.52;;;;;;;;;;6251075;22;20000;-82
2023/08/05 00:49:51;;;;;;;20.10;14.68;;;;;;;;;;6282847;22;20008;-79
2023/08/05 00:52:17;;;;;;;19.48;15.40;;;;;;;;;;6256657;22;20034;-81
2023/08/05 00:54:42;;;;;;;17.85;14.13;;;;;;;;;;6225570;22;20003;-81
2023/08/05 00:57:09;;;;;;;17.75;13.00;;;;;;;;;;6225563;22;20081;-82
2023/08/05 00:59:34;;;;;;;18.60;13.30;;;;;;;;;;6277198;22;20031;-81
2023/08/05 01:02:00;;;;;;;37.30;13.55;;;;;;;;;;6276233;22;20355;-81
2023/08/05 01:04:25;;;;;;;20.17;12.82;;;;;;;;;;6224008;22;20008;-81
2023/08/05 01:06:50;;;;;;;17.92;13.10;;;;;;;;;;6249392;22;20085;-81
2023/08/05 01:09:16;;;;;;;21.63;12.00;;;;;;;;;;6223983;22;20346;-81
2023/08/05 01:11:41;;;;;;;17.05;13.15;;;;;;;;;;6276274;22;20368;-81
2023/08/05 01:14:07;;;;;;;16.50;11.73;;;;;;;;;;6277744;22;20583;-81
2023/08/05 01:16:32;;;;;;;14.80;12.57;;;;;;;;;;6276204;22;20439;-81
2023/08/05 01:18:59;;;;;;;17.08;12.18;;;;;;;;;;6276998;22;20026;-81
2023/08/05 01:21:47;;;;;;;18.95;13.57;;;;;;;;;;6250038;22;20000;-82
2023/08/05 01:24:16;;;;;;;20.50;12.15;;;;;;;;;;6248737;22;20078;-81
2023/08/05 01:26:42;;;;;;;19.67;11.95;;;;;;;;;;6224846;22;20000;-82
2023/08/05 01:29:07;;;;;;;16.35;11.77;;;;;;;;;;6275986;22;20061;-81
2023/08/05 01:31:33;;;;;;;14.23;11.60;;;;;;;;;;6249035;22;19996;-82
2023/08/05 01:33:58;;;;;;;23.35;11.95;;;;;;;;;;6249315;22;20062;-81
2023/08/05 01:36:24;;;;;;;20.17;12.30;;;;;;;;;;6281549;22;20320;-80
2023/08/05 01:38:49;;;;;;;21.15;12.07;;;;;;;;;;6252194;22;20004;-79
2023/08/05 01:41:15;;;;;;;21.98;12.65;;;;;;;;;;6276446;22;20006;-81
2023/08/05 01:43:41;;;;;;;18.13;11.35;;;;;;;;;;6248941;22;20004;-81
2023/08/05 01:46:06;;;;;;;18.58;12.40;;;;;;;;;;6275714;22;20007;-80
2023/08/05 01:48:31;;;;;;;20.52;11.80;;;;;;;;;;6276129;22;20000;-81
2023/08/05 01:50:57;;;;;;;15.77;11.77;;;;;;;;;;6275526;22;20427;-80
2023/08/05 01:53:22;;;;;;;19.85;11.90;;;;;;;;;;6276046;22;20010;-81
2023/08/05 01:55:48;;;;;;;17.73;11.40;;;;;;;;;;6249025;22;20003;-80
2023/08/05 01:58:13;;;;;;;16.60;11.38;;;;;;;;;;6276069;22;20453;-80
2023/08/05 02:00:38;;;;;;;15.25;10.30;;;;;;;;;;6277687;22;20451;-80
2023/08/05 02:03:04;;;;;;;17.02;10.90;;;;;;;;;;6278028;22;20010;-80
2023/08/05 02:05:29;;;;;;;17.40;10.90;;;;;;;;;;6224831;22;20078;-80
2023/08/05 02:07:55;;;;;;;15.45;10.65;;;;;;;;;;6276651;22;20003;-81
2023/08/05 02:10:20;;;;;;;19.00;10.48;;;;;;;;;;6278159;22;19995;-81
2023/08/05 02:12:46;;;;;;;15.95;10.35;;;;;;;;;;6277314;22;20083;-80
2023/08/05 02:15:11;;;;;;;19.80;10.55;;;;;;;;;;6277931;22;20011;-81
2023/08/05 02:17:36;;;;;;;16.65;10.63;;;;;;;;;;6279396;22;20052;-81
2023/08/05 02:20:04;;;;;;;19.40;10.68;;;;;;;;;;6281131;22;20000;-81
2023/08/05 02:22:29;;;;;;;15.45;10.60;;;;;;;;;;6282540;22;20000;-80
2023/08/05 02:24:54;;;;;;;17.33;10.93;;;;;;;;;;6285583;22;20047;-81
2023/08/05 02:27:20;;;;;;;18.20;10.65;;;;;;;;;;6231481;22;20003;-81
2023/08/05 02:29:46;;;;;;;19.30;11.30;;;;;;;;;;6286816;22;20000;-80
2023/08/05 02:32:11;;;;;;;20.05;11.35;;;;;;;;;;6249299;22;20026;-79
2023/08/05 02:34:36;;;;;;;21.50;11.93;;;;;;;;;;6275480;22;20010;-81
2023/08/05 02:37:02;;;;;;;18.02;11.45;;;;;;;;;;6248277;22;20051;-82
2023/08/05 02:39:27;;;;;;;20.30;11.48;;;;;;;;;;6275895;22;20010;-81
2023/08/05 02:41:53;;;;;;;25.75;12.10;;;;;;;;;;6275825;22;20006;-82
2023/08/05 02:44:18;;;;;;;18.35;11.68;;;;;;;;;;6274742;22;20007;-80
2023/08/05 02:46:44;;;;;;;20.63;12.02;;;;;;;;;;6276178;22;20087;-81
2023/08/05 02:49:10;;;;;;;23.90;11.73;;;;;;;;;;6281438;22;20003;-81
2023/08/05 02:51:36;;;;;;;16.58;12.02;;;;;;;;;;6275230;22;20093;-81
2023/08/05 02:54:01;;;;;;;19.40;12.20;;;;;;;;;;6275334;22;20133;-81
2023/08/05 02:56:27;;;;;;;16.48;11.93;;;;;;;;;;6275462;22;20003;-81
2023/08/05 02:58:52;;;;;;;20.52;12.70;;;;;;;;;;6248580;22;20343;-82
2023/08/05 03:01:17;;;;;;;19.42;12.60;;;;;;;;;;6275065;22;20423;-82
2023/08/05 03:03:43;;;;;;;23.17;12.45;;;;;;;;;;6275313;22;20011;-81
2023/08/05 03:06:08;;;;;;;21.55;12.40;;;;;;;;;;6275288;22;19999;-82
2023/08/05 03:08:34;;;;;;;19.27;11.63;;;;;;;;;;6250538;22;20010;-81
2023/08/05 03:11:00;;;;;;;17.25;11.30;;;;;;;;;;6249952;22;20000;-82
2023/08/05 03:13:25;;;;;;;14.38;11.85;;;;;;;;;;6275303;22;20057;-81
2023/08/05 03:15:51;;;;;;;19.25;12.07;;;;;;;;;;6275311;22;20004;-81
2023/08/05 03:18:16;;;;;;;20.25;11.88;;;;;;;;;;6275193;22;20035;-82
2023/08/05 03:20:42;;;;;;;18.85;12.27;;;;;;;;;;6275679;22;20004;-82
2023/08/05 03:23:08;;;;;;;18.73;12.10;;;;;;;;;;6274951;22;20397;-82
2023/08/05 03:25:33;;;;;;;19.92;12.63;;;;;;;;;;6247984;22;20003;-82
2023/08/05 03:27:59;;;;;;;25.98;12.48;;;;;;;;;;6197597;22;20008;-80
2023/08/05 03:30:24;;;;;;;20.08;12.73;;;;;;;;;;6274817;22;20000;-82
2023/08/05 03:32:50;;;;;;;28.60;13.52;;;;;;;;;;6275008;22;20023;-81
2023/08/05 03:35:15;;;;;;;21.20;13.45;;;;;;;;;;6277296;22;20007;-81
2023/08/05 03:37:41;;;;;;;22.65;14.38;;;;;;;;;;6276425;22;20000;-82
2023/08/05 03:40:07;;;;;;;19.17;13.98;;;;;;;;;;6275644;22;20034;-82
2023/08/05 03:42:32;;;;;;;21.23;13.65;;;;;;;;;;6275610;22;20004;-82
2023/08/05 03:44:58;;;;;;;23.50;13.80;;;;;;;;;;6275832;22;20007;-81
2023/08/05 03:47:24;;;;;;;21.58;13.57;;;;;;;;;;6275402;22;20346;-82
2023/08/05 03:49:49;;;;;;;22.02;13.52;;;;;;;;;;6275766;22;20008;-82
2023/08/05 03:52:15;;;;;;;21.80;13.30;;;;;;;;;;6276187;22;20010;-82
2023/08/05 03:54:40;;;;;;;27.27;13.30;;;;;;;;;;6276427;22;20030;-80
2023/08/05 03:57:08;;;;;;;21.25;13.70;;;;;;;;;;6255868;22;20004;-80
2023/08/05 03:59:36;;;;;;;19.77;13.38;;;;;;;;;;6278883;22;20004;-81
2023/08/05 04:02:03;;;;;;;21.85;13.38;;;;;;;;;;6275667;22;20430;-82
2023/08/05 04:04:28;;;;;;;22.05;13.55;;;;;;;;;;6275160;22;20008;-82
2023/08/05 04:06:53;;;;;;;24.85;12.68;;;;;;;;;;6275193;22;20441;-82
2023/08/05 04:09:20;;;;;;;19.52;12.68;;;;;;;;;;6274792;22;20493;-82
2023/08/05 04:11:48;;;;;;;19.27;13.18;;;;;;;;;;6222639;22;20036;-80
2023/08/05 04:14:15;;;;;;;19.25;12.75;;;;;;;;;;6248514;22;20000;-83
2023/08/05 04:16:41;;;;;;;23.15;12.98;;;;;;;;;;6248094;22;20045;-82
2023/08/05 04:19:07;;;;;;;21.13;12.13;;;;;;;;;;6276292;22;20014;-82
2023/08/05 04:21:39;;;;;;;24.15;12.73;;;;;;;;;;6225375;22;20008;-81
2023/08/05 04:24:07;;;;;;;19.52;13.27;;;;;;;;;;6274757;22;20083;-81
2023/08/05 04:26:35;;;;;;;18.75;12.50;;;;;;;;;;6275025;22;20074;-83
2023/08/05 04:29:01;;;;;;;24.52;12.55;;;;;;;;;;6248628;22;20011;-82
2023/08/05 04:31:26;;;;;;;21.73;12.23;;;;;;;;;;6274809;22;20003;-81
2023/08/05 04:33:52;;;;;;;21.40;11.18;;;;;;;;;;6247955;22;20010;-82
2023/08/05 04:36:17;;;;;;;20.63;12.45;;;;;;;;;;6276674;22;20003;-81
2023/08/05 04:38:43;;;;;;;17.27;12.65;;;;;;;;;;6276476;22;20366;-81
2023/08/05 04:41:08;;;;;;;19.60;11.30;;;;;;;;;;6224357;22;20415;-80
2023/08/05 04:43:34;;;;;;;20.98;11.23;;;;;;;;;;6279441;22;20000;-81
2023/08/05 04:45:59;;;;;;;18.20;10.82;;;;;;;;;;6255842;22;20095;-80
2023/08/05 04:48:25;;;;;;;18.33;11.70;;;;;;;;;;6276340;22;19996;-81
2023/08/05 04:50:50;;;;;;;19.33;10.80;;;;;;;;;;6249091;22;20051;-79
2023/08/05 04:53:16;;;;;;;18.90;10.05;;;;;;;;;;6276126;22;20007;-80
2023/08/05 04:55:41;;;;;;;18.60;9.32;;;;;;;;;;6249412;22;20011;-81
2023/08/05 04:58:08;;;;;;;16.95;9.77;;;;;;;;;;6276404;22;19999;-81
2023/08/05 05:00:34;;;;;;;21.40;9.40;;;;;;;;;;6276265;22;20063;-81
2023/08/05 05:02:59;;;;;;;16.30;9.07;;;;;;;;;;6276360;22;20003;-80
2023/08/05 05:05:25;;;;;;;16.15;8.98;;;;;;;;;;6276571;22;20015;-81
2023/08/05 05:07:50;;;;;;;19.02;9.15;;;;;;;;;;6278465;22;20007;-81
2023/08/05 05:10:17;;;;;;;20.05;8.40;;;;;;;;;;6278053;22;20008;-81
2023/08/05 05:12:42;;;;;;;18.08;8.57;;;;;;;;;;6276114;22;20000;-81
2023/08/05 05:15:08;;;;;;;21.42;8.23;;;;;;;;;;6249273;22;20007;-81
2023/08/05 05:17:34;;;;;;;13.38;8.00;;;;;;;;;;6224348;22;20014;-81
2023/08/05 05:20:00;;;;;;;12.88;8.02;;;;;;;;;;6250109;22;20004;-82
2023/08/05 05:22:26;;;;;;;13.68;7.88;;;;;;;;;;6276597;22;20049;-81
2023/08/05 05:24:51;;;;;;;16.60;7.57;;;;;;;;;;6276247;22;20008;-81
2023/08/05 05:27:17;;;;;;;18.48;8.00;;;;;;;;;;6276319;22;20003;-81
2023/08/05 05:29:44;;;;;;;13.20;7.72;;;;;;;;;;6279343;22;20081;-81
2023/08/05 05:32:09;;;;;;;13.95;7.18;;;;;;;;;;6276676;22;20008;-80
2023/08/05 05:34:35;;;;;;;11.75;7.13;;;;;;;;;;6276300;22;20330;-81
2023/08/05 05:37:00;;;;;;;13.00;6.78;;;;;;;;;;6275643;22;20004;-82
2023/08/05 05:39:25;;;;;;;10.85;6.80;;;;;;;;;;6275800;22;20431;-81
2023/08/05 05:41:51;;;;;;;10.70;7.25;;;;;;;;;;6276189;22;20105;-80
2023/08/05 05:44:16;;;;;;;10.85;6.10;;;;;;;;;;6276159;22;20138;-81
2023/08/05 05:46:43;;;;;;;13.93;6.30;;;;;;;;;;6276889;22;20035;-81
2023/08/05 05:49:10;;;;;;;11.98;6.72;;;;;;;;;;6276120;22;19999;-81
2023/08/05 05:51:35;;;;;;;22.67;6.25;;;;;;;;;;6278435;22;20035;-81
2023/08/05 05:54:01;;;;;;;11.07;6.43;;;;;;;;;;6276390;22;20010;-80
2023/08/05 05:56:26;;;;;;;11.13;5.85;;;;;;;;;;6275687;22;20014;-82
2023/08/05 05:58:51;;;;;;;14.05;6.35;;;;;;;;;;6275989;22;20373;-82
2023/08/05 06:01:17;;;;;;;9.68;5.15;;;;;;;;;;6275619;22;20003;-81
2023/08/05 06:03:42;;;;;;;8.73;6.00;;;;;;;;;;6275906;22;19996;-83
2023/08/05 06:06:08;;;;;;;8.85;5.90;;;;;;;;;;6248210;22;20004;-81
2023/08/05 06:08:36;;;;;;;11.50;5.70;;;;;;;;;;6276293;22;20088;-81
2023/08/05 06:11:07;;;;;;;11.07;5.85;;;;;;;;;;6275623;22;20101;-82
2023/08/05 06:13:32;;;;;;;11.60;6.10;;;;;;;;;;6276067;22;19992;-83
2023/08/05 06:15:58;;;;;;;11.25;6.03;;;;;;;;;;6281342;22;20008;-83
2023/08/05 06:18:23;;;;;;;7.28;6.15;;;;;;;;;;6248915;22;20031;-82
2023/08/05 06:20:49;;;;;;;11.77;5.93;;;;;;;;;;6248713;22;20000;-82
2023/08/05 06:23:14;;;;;;;11.35;6.03;;;;;;;;;;6248478;22;20077;-82
2023/08/05 06:25:41;;;;;;;13.30;5.55;;;;;;;;;;6198776;22;20003;-81
2023/08/05 06:28:06;;;;;;;7.15;5.55;;;;;;;;;;6223848;22;20010;-82
2023/08/05 06:30:32;;;;;;;11.10;5.47;;;;;;;;;;6275715;22;19996;-81
2023/08/05 06:32:57;;;;;;;14.68;5.88;;;;;;;;;;6275371;22;20042;-82
2023/08/05 06:35:22;;;;;;;10.38;5.53;;;;;;;;;;6275321;22;20410;-80
2023/08/05 06:37:48;;;;;;;9.57;5.72;;;;;;;;;;6276310;22;20031;-82
2023/08/05 06:40:13;;;;;;;10.55;5.60;;;;;;;;;;6276638;22;19996;-83
2023/08/05 06:42:39;;;;;;;8.93;5.85;;;;;;;;;;6275414;22;20419;-83
2023/08/05 06:45:05;;;;;;;13.77;5.82;;;;;;;;;;6275349;22;19999;-82
2023/08/05 06:47:31;;;;;;;11.00;5.38;;;;;;;;;;6275166;22;20011;-82
2023/08/05 06:50:02;;;;;;;12.23;5.85;;;;;;;;;;6275628;22;20012;-82
2023/08/05 06:52:28;;;;;;;18.90;6.40;;;;;;;;;;6275090;22;20019;-83
2023/08/05 06:54:55;;;;;;;13.43;5.60;;;;;;;;;;6248198;22;20000;-83
2023/08/05 06:57:21;;;;;;;10.50;5.38;;;;;;;;;;6275207;22;20010;-81
2023/08/05 06:59:46;;;;;;;10.02;5.78;;;;;;;;;;6275135;22;20000;-80
2023/08/05 07:02:12;;;;;;;13.40;6.65;;;;;;;;;;6259560;22;20075;-81
2023/08/05 07:04:37;;;;;;;14.85;6.63;;;;;;;;;;6275890;22;20399;-81
2023/08/05 07:07:03;;;;;;;18.50;6.30;;;;;;;;;;6248054;22;20010;-80
2023/08/05 07:09:28;;;;;;;11.30;6.03;;;;;;;;;;6275734;22;20026;-82
2023/08/05 07:11:54;;;;;;;14.40;5.68;;;;;;;;;;6248345;22;20465;-81
2023/08/05 07:14:19;;;;;;;11.73;5.63;;;;;;;;;;6275354;22;20367;-80
2023/08/05 07:16:45;;;;;;;14.35;5.47;;;;;;;;;;6275008;22;20353;-83
2023/08/05 07:19:10;;;;;;;8.65;5.47;;;;;;;;;;6248599;22;20024;-80
2023/08/05 07:21:36;;;;;;;10.90;6.15;;;;;;;;;;6222616;22;20012;-83
2023/08/05 07:24:01;;;;;;;12.80;6.20;;;;;;;;;;6275751;22;20397;-82
2023/08/05 07:26:26;;;;;;;13.98;6.32;;;;;;;;;;6223689;22;20431;-83
2023/08/05 07:28:52;;;;;;;11.27;6.15;;;;;;;;;;6275682;22;20053;-82
2023/08/05 07:31:18;;;;;;;12.43;5.72;;;;;;;;;;6248212;22;19999;-82
2023/08/05 07:33:46;;;;;;;9.20;5.70;;;;;;;;;;6247712;22;20316;-80
2023/08/05 07:36:12;;;;;;;8.50;6.07;;;;;;;;;;6247607;22;20008;-81
2023/08/05 07:38:42;;;;;;;12.00;6.05;;;;;;;;;;6248016;22;20072;-82
2023/08/05 07:41:08;;;;;;;10.45;6.10;;;;;;;;;;6224479;22;20004;-82
2023/08/05 07:43:36;;;;;;;13.05;6.65;;;;;;;;;;6222584;22;20007;-81
2023/08/05 07:46:05;;;;;;;9.98;6.30;;;;;;;;;;6275190;22;20006;-81
2023/08/05 07:48:36;;;;;;;9.13;6.18;;;;;;;;;;6226909;22;20004;-82
2023/08/05 07:51:08;;;;;;;12.10;6.53;;;;;;;;;;6249482;22;20011;-81
2023/08/05 07:53:36;;;;;;;11.13;7.03;;;;;;;;;;6222748;22;20015;-82
2023/08/05 07:56:08;;;;;;;;;;;;;;;;;;6275386;22;20440;-82
2023/08/05 07:58:34;;;;;;;10.68;6.55;;;;;;;;;;6248392;22;20294;-82
2023/08/05 08:00:59;;;;;;;9.30;6.45;;;;;;;;;;6275205;22;20000;-82
2023/08/05 08:03:29;;;;;;;8.40;6.70;;;;;;;;;;6274432;22;20411;-83
2023/08/05 08:05:54;;;;;;;15.07;7.43;;;;;;;;;;6275005;22;20000;-83
2023/08/05 08:08:20;;;;;;;10.43;6.78;;;;;;;;;;6274650;22;20000;-82
2023/08/05 08:10:46;;;;;;;9.70;6.82;;;;;;;;;;6225989;22;20450;-82
2023/08/05 08:13:11;;;;;;;10.63;6.65;;;;;;;;;;6252088;22;20046;-82
2023/08/05 08:15:37;;;;;;;13.90;6.80;;;;;;;;;;6249364;22;20057;-83
2023/08/05 08:18:02;;;;;;;14.52;6.97;;;;;;;;;;6250106;22;20011;-82
2023/08/05 08:20:28;;;;;;;16.17;7.15;;;;;;;;;;6276972;22;20000;-82
2023/08/05 08:22:53;;;;;;;19.50;6.78;;;;;;;;;;6276927;22;19999;-81
2023/08/05 08:25:19;;;;;;;13.80;7.35;;;;;;;;;;6276955;22;20007;-81
2023/08/05 08:27:44;;;;;;;12.80;7.00;;;;;;;;;;6276826;22;20369;-83
2023/08/05 08:30:11;;;;;;;9.77;7.07;;;;;;;;;;6276533;22;20004;-82
2023/08/05 08:32:36;;;;;;;11.93;7.45;;;;;;;;;;6249626;22;20346;-82
2023/08/05 08:35:02;;;;;;;10.85;7.13;;;;;;;;;;6283677;22;20063;-83
2023/08/05 08:37:28;;;;;;;10.27;7.60;;;;;;;;;;6277461;22;20047;-83
2023/08/05 08:39:53;;;;;;;12.32;7.53;;;;;;;;;;6276370;22;20040;-82
2023/08/05 08:42:20;;;;;;;9.63;7.30;;;;;;;;;;6276409;22;20037;-82
2023/08/05 08:44:45;;;;;;;11.52;7.32;;;;;;;;;;6249264;22;20010;-82
2023/08/05 08:47:11;;;;;;;13.55;7.60;;;;;;;;;;6249496;22;20399;-83
2023/08/05 08:49:36;;;;;;;12.10;7.78;;;;;;;;;;6224509;22;20004;-81
2023/08/05 08:52:01;;;;;;;13.43;7.70;;;;;;;;;;6276165;22;20122;-81
2023/08/05 08:54:27;;;;;;;19.88;8.18;;;;;;;;;;6224346;22;20004;-82
2023/08/05 08:56:52;;;;;;;12.15;7.47;;;;;;;;;;6249996;22;19999;-83
2023/08/05 08:59:18;;;;;;;14.65;8.02;;;;;;;;;;6288231;22;20010;-83
2023/08/05 09:01:43;;;;;;;19.75;8.05;;;;;;;;;;6276147;22;20392;-82
2023/08/05 09:04:10;;;;;;;14.07;7.20;;;;;;;;;;6224143;22;20007;-83
2023/08/05 09:06:36;;;;;;;10.20;7.30;;;;;;;;;;6249837;22;20065;-82
2023/08/05 09:09:01;;;;;;;10.68;7.40;;;;;;;;;;6276860;22;20008;-83
2023/08/05 09:11:27;;;;;;;10.57;7.93;;;;;;;;;;6276472;22;20322;-83
2023/08/05 09:13:53;;;;;;;16.15;8.02;;;;;;;;;;6276269;22;20003;-82
2023/08/05 09:16:18;;;;;;;20.30;8.07;;;;;;;;;;6249323;22;20087;-82
2023/08/05 09:18:47;;;;;;;14.88;7.25;;;;;;;;;;6276126;22;20026;-83
2023/08/05 09:21:20;;;;;;;19.55;8.57;;;;;;;;;;6278575;22;20030;-80
2023/08/05 09:23:46;;;;;;;18.15;8.40;;;;;;;;;;6251812;22;20090;-82
2023/08/05 09:26:12;;;;;;;13.18;7.70;;;;;;;;;;6224192;22;19999;-82
2023/08/05 09:28:39;;;;;;;17.05;7.38;;;;;;;;;;6277605;22;20035;-82
2023/08/05 09:31:14;;;;;;;11.32;7.97;;;;;;;;;;6286146;22;20003;-81
2023/08/05 09:33:41;;;;;;;18.05;8.48;;;;;;;;;;6233438;22;20069;-82
2023/08/05 09:36:11;;;;;;;20.50;7.47;;;;;;;;;;6233138;22;20540;-82
2023/08/05 09:38:38;;;;;;;18.73;8.68;;;;;;;;;;6277080;22;20008;-82
2023/08/05 09:41:04;;;;;;;17.90;8.70;;;;;;;;;;6249481;22;19996;-82
2023/08/05 09:43:34;;;;;;;10.65;7.22;;;;;;;;;;6276790;22;20417;-83
2023/08/05 09:46:04;;;;;;;11.82;7.85;;;;;;;;;;6253615;22;20070;-83
2023/08/05 09:48:32;;;;;;;18.80;8.40;;;;;;;;;;6275826;22;20004;-83
2023/08/05 09:50:58;;;;;;;18.90;8.20;;;;;;;;;;6224217;22;20082;-84
2023/08/05 09:53:24;;;;;;;13.95;8.30;;;;;;;;;;6224390;22;20083;-83
2023/08/05 09:55:49;;;;;;;13.93;8.07;;;;;;;;;;6223717;22;20061;-82
2023/08/05 09:58:14;;;;;;;20.42;8.38;;;;;;;;;;6223261;22;20008;-82
2023/08/05 10:00:41;;;;;;;13.15;7.57;;;;;;;;;;6276222;22;20000;-82
2023/08/05 10:03:07;;;;;;;14.50;8.68;;;;;;;;;;6276357;22;20043;-83
2023/08/05 10:05:34;;;;;;;12.10;8.70;;;;;;;;;;6249120;22;20118;-82
2023/08/05 10:07:59;;;;;;;18.08;8.63;;;;;;;;;;6252238;22;20003;-81
2023/08/05 10:10:25;;;;;;;17.67;8.70;;;;;;;;;;6279527;22;20003;-82
2023/08/05 10:13:02;;;;;;;16.38;8.43;;;;;;;;;;6248501;22;20004;-81
2023/08/05 10:15:38;;;;;;;14.70;8.95;;;;;;;;;;6248836;22;20003;-82
2023/08/05 10:18:14;;;;;;;12.63;8.27;;;;;;;;;;6249171;22;20011;-82
2023/08/05 10:20:40;;;;;;;12.18;8.40;;;;;;;;;;6275448;22;20431;-83
2023/08/05 10:23:08;;;;;;;18.15;8.68;;;;;;;;;;6275861;22;20004;-81
2023/08/05 10:25:43;;;;;;;13.95;8.43;;;;;;;;;;6223782;22;20000;-82
2023/08/05 10:28:09;;;;;;;14.20;9.18;;;;;;;;;;6248886;22;20087;-81
2023/08/05 10:30:44;;;;;;;16.95;8.40;;;;;;;;;;6275968;22;19999;-81
2023/08/05 10:33:10;;;;;;;15.52;8.57;;;;;;;;;;6225550;22;20004;-81
2023/08/05 10:35:39;;;;;;;15.02;8.82;;;;;;;;;;6275798;22;20437;-82
2023/08/05 10:38:19;;;;;;;20.23;9.23;;;;;;;;;;6275427;22;20012;-81
2023/08/05 10:41:01;;;;;;;16.77;8.95;;;;;;;;;;6224917;22;20374;-82
2023/08/05 10:43:32;;;;;;;13.60;8.90;;;;;;;;;;6275957;22;20031;-81
2023/08/05 10:45:59;;;;;;;13.15;8.93;;;;;;;;;;6275989;22;20011;-81
2023/08/05 10:48:28;;;;;;;19.08;9.20;;;;;;;;;;6276116;22;20003;-81
2023/08/05 10:50:54;;;;;;;15.73;9.57;;;;;;;;;;6251008;22;20015;-80
2023/08/05 10:53:19;;;;;;;26.88;9.50;;;;;;;;;;6282856;22;20323;-80
2023/08/05 10:55:49;;;;;;;16.80;8.85;;;;;;;;;;6244962;22;20008;-83
2023/08/05 10:58:15;;;;;;;16.58;9.98;;;;;;;;;;6276273;22;20003;-81
2023/08/05 11:00:42;;;;;;;16.50;9.48;;;;;;;;;;6299970;22;19999;-81
2023/08/05 11:03:40;;;;;;;16.10;9.73;;;;;;;;;;6291881;22;20488;-81
2023/08/05 11:06:06;;;;;;;23.00;10.18;;;;;;;;;;6249246;22;20057;-81
2023/08/05 11:08:32;;;;;;;17.90;9.32;;;;;;;;;;6275583;22;20999;-81
2023/08/05 11:11:02;;;;;;;14.00;9.55;;;;;;;;;;6248040;22;20086;-81
2023/08/05 11:13:31;;;;;;;18.80;9.63;;;;;;;;;;6275201;22;20086;-82
2023/08/05 11:16:03;;;;;;;15.57;9.00;;;;;;;;;;6275306;22;20350;-81
2023/08/05 11:18:28;;;;;;;15.18;9.48;;;;;;;;;;6250022;22;20000;-81
2023/08/05 11:20:55;;;;;;;17.77;10.20;;;;;;;;;;6249584;22;20000;-81
2023/08/05 11:23:21;;;;;;;18.50;10.05;;;;;;;;;;6198196;22;20011;-81
2023/08/05 11:25:46;;;;;;;17.58;10.20;;;;;;;;;;6247686;22;20339;-82
2023/08/05 11:28:12;;;;;;;21.10;9.95;;;;;;;;;;6248355;22;20003;-82
2023/08/05 11:30:40;;;;;;;12.95;9.75;;;;;;;;;;6247972;22;20057;-82
2023/08/05 11:33:06;;;;;;;13.40;9.68;;;;;;;;;;6275460;22;20326;-82
2023/08/05 11:35:31;;;;;;;16.55;9.93;;;;;;;;;;6248165;22;20007;-82
2023/08/05 11:37:57;;;;;;;19.00;10.68;;;;;;;;;;6248211;22;20445;-82
2023/08/05 11:40:22;;;;;;;16.20;9.25;;;;;;;;;;6274947;22;20004;-80
2023/08/05 11:42:48;;;;;;;14.63;9.35;;;;;;;;;;6283383;22;20030;-81
2023/08/05 11:45:14;;;;;;;20.08;9.60;;;;;;;;;;6222492;22;20011;-82
2023/08/05 11:47:40;;;;;;;23.17;9.93;;;;;;;;;;6247738;22;20007;-82
2023/08/05 11:50:09;;;;;;;21.55;9.88;;;;;;;;;;6247848;22;20003;-81
2023/08/05 11:52:34;;;;;;;;;;;;;;;;;;6275213;22;20065;-81
2023/08/05 11:55:00;;;;;;;18.17;9.77;;;;;;;;;;6274376;22;19915;-81
2023/08/05 11:57:26;;;;;;;14.90;9.90;;;;;;;;;;6247798;22;20109;-81
2023/08/05 11:59:53;;;;;;;17.90;9.45;;;;;;;;;;6248234;22;20004;-81
2023/08/05 12:02:19;;;;;;;18.88;9.65;;;;;;;;;;6275161;22;20065;-81
2023/08/05 12:04:45;;;;;;;18.58;10.10;;;;;;;;;;6275155;22;19999;-81
2023/08/05 12:07:14;;;;;;;15.18;9.73;;;;;;;;;;6253651;22;20015;-82
2023/08/05 12:09:39;;;;;;;16.25;10.68;;;;;;;;;;6247940;22;20008;-82
2023/08/05 12:12:05;;;;;;;19.42;10.38;;;;;;;;;;6274791;22;20010;-82
2023/08/05 12:14:31;;;;;;;17.95;10.68;;;;;;;;;;6274883;22;20066;-82
2023/08/05 12:16:59;;;;;;;17.00;10.43;;;;;;;;;;6248034;22;20061;-83
2023/08/05 12:19:27;;;;;;;16.45;10.95;;;;;;;;;;6248381;22;20003;-82
2023/08/05 12:21:53;;;;;;;19.40;10.18;;;;;;;;;;6247685;22;20000;-81
2023/08/05 12:24:18;;;;;;;20.00;11.65;;;;;;;;;;6274759;22;20006;-82
2023/08/05 12:26:44;;;;;;;27.55;11.57;;;;;;;;;;6274626;22;20277;-81
2023/08/05 12:29:09;;;;;;;27.73;11.95;;;;;;;;;;6275625;22;20004;-81
2023/08/05 12:31:35;;;;;;;22.70;11.43;;;;;;;;;;6274961;22;20007;-81
2023/08/05 12:34:01;;;;;;;20.15;12.02;;;;;;;;;;6274056;22;20328;-82
2023/08/05 12:36:26;;;;;;;18.60;11.05;;;;;;;;;;6247440;22;20010;-82
2023/08/05 12:38:52;;;;;;;17.95;10.88;;;;;;;;;;6222811;22;20003;-82
2023/08/05 12:41:17;;;;;;;20.10;10.75;;;;;;;;;;6247585;22;20011;-82
2023/08/05 12:43:43;;;;;;;19.05;11.25;;;;;;;;;;6274874;22;19996;-81
2023/08/05 12:46:08;;;;;;;16.05;11.45;;;;;;;;;;6274922;22;20003;-81
2023/08/05 12:48:34;;;;;;;23.95;11.75;;;;;;;;;;6274923;22;20078;-82
2023/08/05 12:50:59;;;;;;;19.25;12.35;;;;;;;;;;6222292;22;20011;-80
2023/08/05 12:53:24;;;;;;;23.98;12.63;;;;;;;;;;6259916;22;20003;-81
2023/08/05 12:55:50;;;;;;;19.13;12.10;;;;;;;;;;6274936;22;20012;-81
2023/08/05 12:58:15;;;;;;;20.60;11.68;;;;;;;;;;6249917;22;20000;-81
2023/08/05 13:00:41;;;;;;;27.52;12.43;;;;;;;;;;6224373;22;20003;-81
2023/08/05 13:03:06;;;;;;;29.35;12.40;;;;;;;;;;6277116;22;20003;-81
2023/08/05 13:05:31;;;;;;;17.33;12.57;;;;;;;;;;6276416;22;20500;-81
2023/08/05 13:07:57;;;;;;;18.80;12.32;;;;;;;;;;6276365;22;20035;-82
2023/08/05 13:10:25;;;;;;;24.58;12.82;;;;;;;;;;6276646;22;20031;-82
2023/08/05 13:12:51;;;;;;;23.60;12.68;;;;;;;;;;6224841;22;20402;-82
2023/08/05 13:15:16;;;;;;;24.45;13.13;;;;;;;;;;6277216;22;19996;-82
2023/08/05 13:17:42;;;;;;;23.27;12.65;;;;;;;;;;6277717;22;20004;-83
2023/08/05 13:20:08;;;;;;;25.10;13.20;;;;;;;;;;6249197;22;20035;-82
2023/08/05 13:22:34;;;;;;;19.52;12.02;;;;;;;;;;6249092;22;20027;-82
2023/08/05 13:25:00;;;;;;;19.17;12.45;;;;;;;;;;6224182;22;20085;-81
2023/08/05 13:27:26;;;;;;;19.90;13.23;;;;;;;;;;6276830;22;20007;-83
2023/08/05 13:29:52;;;;;;;23.90;11.88;;;;;;;;;;6276728;22;20454;-83
2023/08/05 13:32:17;;;;;;;18.20;12.45;;;;;;;;;;6276384;22;19996;-80
2023/08/05 13:34:42;;;;;;;21.98;12.35;;;;;;;;;;6275946;22;20004;-82
2023/08/05 13:37:08;;;;;;;20.35;12.05;;;;;;;;;;6223390;22;20003;-82
2023/08/05 13:39:33;;;;;;;21.38;12.63;;;;;;;;;;6278179;22;20000;-82
2023/08/05 13:41:59;;;;;;;24.73;12.10;;;;;;;;;;6276466;22;20003;-83
2023/08/05 13:44:26;;;;;;;23.23;12.93;;;;;;;;;;6276968;22;20003;-83
2023/08/05 13:46:52;;;;;;;23.52;13.55;;;;;;;;;;6249991;22;20148;-82
2023/08/05 13:49:17;;;;;;;20.80;12.85;;;;;;;;;;6277401;22;20007;-83
2023/08/05 13:51:43;;;;;;;24.08;13.07;;;;;;;;;;6275865;22;20015;-83
2023/08/05 13:54:10;;;;;;;24.60;13.13;;;;;;;;;;6276253;22;20083;-83
2023/08/05 13:56:36;;;;;;;25.33;12.68;;;;;;;;;;6276070;22;20442;-80
2023/08/05 13:59:02;;;;;;;22.77;12.35;;;;;;;;;;6275712;22;20000;-83
2023/08/05 14:01:27;;;;;;;22.00;12.73;;;;;;;;;;6275676;22;20006;-80
2023/08/05 14:03:53;;;;;;;24.98;12.82;;;;;;;;;;6285104;22;20000;-79
2023/08/05 14:06:18;;;;;;;23.05;12.95;;;;;;;;;;6275909;22;19999;-81
2023/08/05 14:08:43;;;;;;;17.35;12.02;;;;;;;;;;6276245;22;20004;-81
2023/08/05 14:11:09;;;;;;;18.13;12.45;;;;;;;;;;6275744;22;20354;-82
2023/08/05 14:13:35;;;;;;;19.92;12.88;;;;;;;;;;6275784;22;20066;-81
2023/08/05 14:16:00;;;;;;;23.77;12.82;;;;;;;;;;6248898;22;20069;-82
2023/08/05 14:18:26;;;;;;;21.38;12.73;;;;;;;;;;6275653;22;20003;-82